Time;durP1;ratioP1;P1;durP2;ratioP2;P2;SDS_P1;SDS_P2;PMS_P1;PMS_P2;Temp;Humidity;BMP_temperature;BMP_pressure;BME280_temperature;BME280_humidity;BME280_pressure;Samples;Min_cycle;Max_cycle;Signal;HPM_P1;HPM_P2
2022/05/17 00:00:07;;;;;;;5.73;5.20;;;;;;;20.87;69.47;99694.34;5115778;28;20187;-62
2022/05/17 00:02:34;;;;;;;6.80;6.13;;;;;;;20.75;70.69;99691.00;5116249;27;20305;-64
2022/05/17 00:05:02;;;;;;;8.93;7.00;;;;;;;20.69;69.93;99694.72;5115912;28;20191;-65
2022/05/17 00:07:29;;;;;;;7.93;7.00;;;;;;;20.62;70.89;99691.41;5115052;28;20740;-64
2022/05/17 00:09:56;;;;;;;10.80;7.37;;;;;;;20.58;71.33;99696.50;5116011;28;20190;-64
2022/05/17 00:12:23;;;;;;;7.70;6.97;;;;;;;20.56;71.50;99692.44;5115302;28;20190;-65
2022/05/17 00:14:49;;;;;;;8.37;7.67;;;;;;;20.52;71.75;99680.53;5115248;28;20199;-63
2022/05/17 00:17:16;;;;;;;8.70;7.87;;;;;;;20.50;71.78;99688.06;5114975;28;20332;-62
2022/05/17 00:19:43;;;;;;;10.67;8.27;;;;;;;20.44;72.25;99683.69;5114825;28;20252;-63
2022/05/17 00:22:11;;;;;;;8.80;7.90;;;;;;;20.39;72.69;99681.75;5115016;28;20217;-62
2022/05/17 00:24:38;;;;;;;9.17;8.47;;;;;;;20.36;72.02;99681.44;5115070;28;20195;-62
2022/05/17 00:27:06;;;;;;;9.53;8.77;;;;;;;20.29;72.35;99681.66;5114706;28;20252;-62
2022/05/17 00:29:32;;;;;;;11.73;8.13;;;;;;;20.22;72.54;99683.72;5114994;28;20243;-63
2022/05/17 00:32:00;;;;;;;10.63;8.33;;;;;;;20.19;72.25;99686.13;5114551;28;20725;-62
2022/05/17 00:34:27;;;;;;;9.07;8.27;;;;;;;20.15;72.90;99688.53;5114597;28;20191;-62
2022/05/17 00:36:54;;;;;;;10.23;9.30;;;;;;;20.14;72.92;99694.16;5114511;28;20222;-64
2022/05/17 00:39:22;;;;;;;10.30;9.20;;;;;;;20.07;73.39;99682.72;5114492;28;20252;-62
2022/05/17 00:41:49;;;;;;;9.70;9.00;;;;;;;20.00;74.10;99690.19;5114691;28;20248;-62
2022/05/17 00:47:05;;;;;;;7.70;7.13;;;;;;;19.78;71.03;99697.47;5115299;28;20182;-64
2022/05/17 00:49:36;;;;;;;7.07;6.63;;;;;;;19.65;68.98;99697.84;5114782;28;20278;-63
2022/05/17 00:52:09;;;;;;;5.90;5.53;;;;;;;19.46;67.41;99696.50;5115431;28;20179;-62
2022/05/17 00:54:38;;;;;;;6.80;5.67;;;;;;;19.20;68.38;99697.97;5115109;28;20183;-62
2022/05/17 00:57:12;;;;;;;6.80;6.30;;;;;;;19.00;68.86;99686.91;5114370;28;20198;-62
2022/05/17 00:59:39;;;;;;;6.30;5.90;;;;;;;18.94;69.64;99687.88;5114541;28;20183;-62
2022/05/17 01:02:09;;;;;;;7.43;6.83;;;;;;;18.93;70.31;99682.72;5114830;28;20243;-62
2022/05/17 01:04:36;;;;;;;8.00;6.87;;;;;;;18.95;70.88;99683.31;5114861;28;20195;-64
2022/05/17 01:07:06;;;;;;;7.50;6.90;;;;;;;18.94;71.63;99676.28;5114761;28;20226;-64
2022/05/17 01:09:33;;;;;;;8.00;7.47;;;;;;;19.02;72.90;99673.16;5114374;28;20222;-64
2022/05/17 01:12:01;;;;;;;7.50;7.10;;;;;;;18.98;72.81;99672.03;5113610;28;20666;-62
2022/05/17 01:17:13;;;;;;;8.77;8.17;;;;;;;19.00;72.75;99675.31;5114743;28;20245;-62
2022/05/17 01:19:41;;;;;;;8.70;7.83;;;;;;;18.99;73.23;99674.47;5114494;28;20248;-62
2022/05/17 01:22:10;;;;;;;8.63;7.90;;;;;;;19.03;73.17;99680.22;5113634;28;20255;-64
2022/05/17 01:24:37;;;;;;;8.23;7.73;;;;;;;19.12;72.53;99663.38;5114613;28;20222;-64
2022/05/17 01:27:10;;;;;;;9.27;7.97;;;;;;;19.20;72.77;99660.25;5113945;28;20194;-65
2022/05/17 01:29:42;;;;;;;8.03;7.43;;;;;;;19.27;72.41;99663.63;5114895;28;20187;-62
2022/05/17 01:32:11;;;;;;;9.50;8.70;;;;;;;19.31;72.45;99658.53;5113398;28;20194;-65
2022/05/17 01:34:38;;;;;;;7.67;6.90;;;;;;;19.33;72.49;99665.34;5113697;27;20258;-65
2022/05/17 01:37:06;;;;;;;8.10;7.50;;;;;;;19.32;72.69;99662.91;5114452;28;20194;-65
2022/05/17 01:39:34;;;;;;;8.57;7.73;;;;;;;19.36;73.24;99666.72;5113288;28;20191;-65
2022/05/17 01:42:01;;;;;;;7.43;6.93;;;;;;;19.34;73.36;99655.38;5113168;28;20236;-63
2022/05/17 01:44:28;;;;;;;8.47;7.87;;;;;;;19.41;73.19;99658.69;5113078;28;20703;-63
2022/05/17 01:46:54;;;;;;;8.80;8.10;;;;;;;19.40;72.85;99654.38;5113945;28;20197;-62
2022/05/17 01:49:21;;;;;;;9.00;7.97;;;;;;;19.38;73.45;99651.09;5113657;28;20834;-62
2022/05/17 01:51:48;;;;;;;9.37;8.50;;;;;;;19.40;73.24;99654.38;5113023;28;20744;-61
2022/05/17 01:54:15;;;;;;;9.50;8.47;;;;;;;19.31;73.43;99647.78;5113002;28;20667;-64
2022/05/17 01:56:43;;;;;;;10.53;8.63;;;;;;;19.28;73.95;99650.97;5113236;28;20197;-64
2022/05/17 01:59:09;;;;;;;9.87;8.97;;;;;;;19.35;73.52;99643.53;5113173;28;20198;-64
2022/05/17 02:01:36;;;;;;;9.83;8.83;;;;;;;19.37;73.43;99646.78;5113507;28;20190;-64
2022/05/17 02:04:03;;;;;;;9.77;8.57;;;;;;;19.35;73.17;99641.66;5113046;28;20263;-64
2022/05/17 02:06:30;;;;;;;10.50;8.90;;;;;;;19.38;73.07;99643.03;5113074;28;20206;-63
2022/05/17 02:08:56;;;;;;;10.03;9.23;;;;;;;19.33;73.27;99637.56;5113670;28;20257;-64
2022/05/17 02:11:23;;;;;;;9.50;8.90;;;;;;;19.28;75.00;99635.63;5112128;28;20724;-61
2022/05/17 02:13:51;;;;;;;10.13;9.10;;;;;;;19.21;74.25;99642.22;5112700;28;20741;-62
2022/05/17 02:16:18;;;;;;;9.50;8.97;;;;;;;19.10;73.81;99633.19;5112644;28;20215;-62
2022/05/17 02:18:44;;;;;;;10.00;9.27;;;;;;;18.99;74.73;99644.06;5112613;28;20254;-62
2022/05/17 02:21:11;;;;;;;15.17;9.10;;;;;;;18.95;74.89;99648.31;5112587;28;20666;-64
2022/05/17 02:23:38;;;;;;;10.90;9.70;;;;;;;18.90;74.18;99650.91;5112846;28;20225;-62
2022/05/17 02:26:05;;;;;;;10.27;9.40;;;;;;;18.82;74.09;99645.94;5112772;28;20192;-62
2022/05/17 02:28:32;;;;;;;10.00;9.20;;;;;;;18.80;75.16;99642.69;5112758;28;20255;-64
2022/05/17 02:31:00;;;;;;;9.67;8.97;;;;;;;18.87;74.54;99637.94;5112754;28;20192;-63
2022/05/17 02:33:27;;;;;;;10.43;9.73;;;;;;;18.92;74.24;99636.16;5112724;28;20201;-62
2022/05/17 02:35:53;;;;;;;10.73;9.93;;;;;;;18.95;74.44;99632.94;5112401;28;20197;-63
2022/05/17 02:38:20;;;;;;;10.77;9.70;;;;;;;18.93;74.42;99637.78;5112703;28;20190;-63
2022/05/17 02:40:47;;;;;;;10.53;9.93;;;;;;;18.98;74.25;99628.94;5112280;28;20193;-63
2022/05/17 02:43:15;;;;;;;16.33;10.33;;;;;;;19.01;74.36;99633.84;5112528;28;20226;-62
2022/05/17 02:45:42;;;;;;;25.17;12.17;;;;;;;18.95;74.69;99632.16;5112406;28;20206;-62
2022/05/17 02:48:10;;;;;;;12.70;11.47;;;;;;;18.90;76.20;99637.44;5113254;28;20287;-65
2022/05/17 02:50:37;;;;;;;12.80;11.50;;;;;;;18.99;75.65;99630.59;5113126;28;20187;-65
2022/05/17 02:53:04;;;;;;;13.00;11.90;;;;;;;18.98;75.42;99629.78;5113071;28;20187;-64
2022/05/17 02:55:31;;;;;;;13.27;11.83;;;;;;;19.06;76.11;99639.31;5113332;28;20255;-63
2022/05/17 02:57:58;;;;;;;12.60;11.33;;;;;;;19.08;75.74;99639.88;5112481;28;20215;-63
2022/05/17 03:00:26;;;;;;;13.30;12.13;;;;;;;19.05;76.08;99641.19;5112360;28;20222;-62
2022/05/17 03:02:53;;;;;;;11.73;10.73;;;;;;;18.97;76.06;99648.88;5112046;28;20698;-63
2022/05/17 03:05:21;;;;;;;12.67;11.70;;;;;;;18.99;75.99;99644.06;5112596;28;20255;-62
2022/05/17 03:07:48;;;;;;;12.60;11.67;;;;;;;19.00;75.59;99649.22;5112297;28;20193;-62
2022/05/17 03:10:15;;;;;;;12.83;11.97;;;;;;;19.05;75.28;99643.06;5111881;28;20194;-62
2022/05/17 03:12:42;;;;;;;12.17;11.17;;;;;;;19.11;75.68;99650.16;5112043;28;20192;-62
2022/05/17 03:15:10;;;;;;;11.73;10.70;;;;;;;19.13;75.37;99648.84;5111985;28;20198;-62
2022/05/17 03:17:37;;;;;;;12.13;10.73;;;;;;;19.21;74.64;99658.38;5112148;28;20648;-62
2022/05/17 03:20:05;;;;;;;11.50;10.40;;;;;;;19.32;73.83;99657.50;5112108;28;20198;-62
2022/05/17 03:22:34;;;;;;;11.63;10.53;;;;;;;19.39;73.64;99661.63;5111369;28;20255;-62
2022/05/17 03:25:00;;;;;;;11.80;10.80;;;;;;;19.35;72.67;99659.69;5115382;28;20311;-62
2022/05/17 03:27:27;;;;;;;10.87;10.07;;;;;;;19.32;72.96;99663.69;5115826;28;20190;-62
2022/05/17 03:29:54;;;;;;;10.97;10.30;;;;;;;19.31;73.16;99658.53;5116402;28;20251;-61
2022/05/17 03:32:20;;;;;;;10.73;9.83;;;;;;;19.23;72.88;99664.31;5116026;28;20194;-63
2022/05/17 03:34:47;;;;;;;14.10;10.90;;;;;;;19.08;73.59;99661.44;5115730;28;20195;-61
2022/05/17 03:37:14;;;;;;;11.80;10.87;;;;;;;18.96;74.08;99669.59;5115926;28;20190;-64
2022/05/17 03:39:42;;;;;;;14.60;11.20;;;;;;;18.92;74.21;99667.63;5115467;28;20196;-63
2022/05/17 03:42:09;;;;;;;10.47;9.67;;;;;;;18.83;75.61;99667.22;5116077;28;20194;-61
2022/05/17 03:44:37;;;;;;;13.23;11.23;;;;;;;18.83;74.56;99661.03;5115406;28;20218;-62
2022/05/17 03:47:05;;;;;;;22.07;11.00;;;;;;;18.98;74.28;99672.03;5115805;28;20196;-62
2022/05/17 03:49:32;;;;;;;12.27;11.07;;;;;;;19.07;74.32;99670.56;5115478;28;20690;-62
2022/05/17 03:51:58;;;;;;;11.63;10.63;;;;;;;19.19;73.70;99668.59;5115373;28;20231;-62
2022/05/17 03:54:25;;;;;;;11.57;10.77;;;;;;;19.27;74.00;99670.88;5115974;28;20202;-62
2022/05/17 03:56:54;;;;;;;16.33;11.07;;;;;;;19.69;72.54;99674.72;5115293;28;20187;-63
2022/05/17 03:59:20;;;;;;;11.93;10.73;;;;;;;20.44;68.42;99689.91;5115599;28;20194;-63
2022/05/17 04:01:47;;;;;;;19.63;10.03;;;;;;;21.15;66.67;99685.94;5115485;28;20279;-63
2022/05/17 04:04:14;;;;;;;11.40;8.57;;;;;;;22.09;63.49;99692.94;5115058;28;20215;-71
2022/05/17 04:06:41;;;;;;;10.23;8.33;;;;;;;23.41;60.80;99696.38;5115603;28;20203;-69
2022/05/17 04:09:08;;;;;;;17.57;9.33;;;;;;;24.53;53.85;99710.03;5115927;28;20191;-70
2022/05/17 04:11:35;;;;;;;11.30;8.67;;;;;;;25.21;50.77;99720.97;5115391;28;20233;-71
2022/05/17 04:14:03;;;;;;;10.87;8.67;;;;;;;26.00;51.05;99719.38;5115001;28;20205;-71
2022/05/17 04:16:32;;;;;;;9.13;7.90;;;;;;;26.77;46.67;99726.22;5115231;28;20197;-71
2022/05/17 04:19:00;;;;;;;8.43;7.73;;;;;;;27.19;46.45;99723.38;5116005;28;20191;-70
2022/05/17 04:21:27;;;;;;;15.37;7.73;;;;;;;27.52;42.79;99716.81;5115025;28;20234;-71
2022/05/17 04:23:54;;;;;;;10.53;9.47;;;;;;;27.21;43.14;99713.00;5115001;28;20222;-71
2022/05/17 04:26:20;;;;;;;13.73;8.43;;;;;;;27.11;42.95;99711.22;5114528;28;20323;-73
2022/05/17 04:28:47;;;;;;;7.57;7.07;;;;;;;27.13;43.10;99713.66;5114710;28;20676;-71
2022/05/17 04:31:16;;;;;;;26.33;8.70;;;;;;;26.99;44.57;99693.72;5114428;28;20201;-71
2022/05/17 04:33:43;;;;;;;8.57;7.90;;;;;;;26.84;43.66;99696.69;5120058;27;20197;-74
2022/05/17 04:36:10;;;;;;;9.67;7.23;;;;;;;27.14;42.58;99701.63;5134726;27;20190;-77
2022/05/17 04:38:37;;;;;;;13.70;7.87;;;;;;;27.54;42.96;99703.66;5135947;27;20254;-72
2022/05/17 04:41:04;;;;;;;19.37;8.07;;;;;;;27.71;42.37;99703.88;5124032;27;20195;-74
2022/05/17 04:43:31;;;;;;;13.90;8.33;;;;;;;27.57;41.21;99701.13;5114475;28;20195;-73
2022/05/17 04:45:58;;;;;;;14.97;8.30;;;;;;;27.80;40.79;99708.34;5114978;27;20191;-74
2022/05/17 04:48:27;;;;;;;9.37;8.50;;;;;;;28.32;38.98;99701.53;5132475;27;20274;-75
2022/05/17 04:50:54;;;;;;;18.43;9.03;;;;;;;28.74;38.78;99703.88;5114459;27;20255;-74
2022/05/17 04:53:21;;;;;;;8.53;7.70;;;;;;;28.89;37.72;99706.25;5114765;28;20190;-73
2022/05/17 04:55:48;;;;;;;8.50;7.57;;;;;;;28.75;39.19;99700.03;5114803;27;20252;-74
2022/05/17 04:58:15;;;;;;;7.50;7.10;;;;;;;28.97;37.84;99702.78;5114447;28;20255;-73
2022/05/17 05:00:42;;;;;;;11.17;7.73;;;;;;;29.34;37.51;99696.94;5113703;27;20260;-77
2022/05/17 05:03:09;;;;;;;7.60;6.90;;;;;;;29.71;36.64;99696.50;5113589;28;20728;-78
2022/05/17 05:05:37;;;;;;;7.53;6.20;;;;;;;30.14;35.74;99692.00;5114352;28;20222;-77
2022/05/17 05:08:05;;;;;;;7.13;6.43;;;;;;;30.58;34.85;99691.69;5114412;28;20191;-74
2022/05/17 05:10:32;;;;;;;6.30;5.87;;;;;;;30.97;33.73;99688.81;5113862;28;20685;-73
2022/05/17 05:12:58;;;;;;;8.00;6.50;;;;;;;31.10;33.55;99693.31;5114108;28;20187;-74
2022/05/17 05:15:25;;;;;;;6.97;6.40;;;;;;;31.41;32.75;99691.19;5113900;28;20732;-75
2022/05/17 05:17:52;;;;;;;7.83;5.60;;;;;;;31.66;32.34;99682.03;5114057;28;20641;-76
2022/05/17 05:20:19;;;;;;;7.40;6.10;;;;;;;31.67;32.55;99683.66;5133360;27;20197;-74
2022/05/17 05:22:47;;;;;;;6.73;5.90;;;;;;;32.06;32.04;99694.28;5132778;27;20254;-73
2022/05/17 05:25:15;;;;;;;12.03;6.23;;;;;;;32.27;31.26;99692.41;5133901;27;20745;-72
2022/05/17 05:27:42;;;;;;;19.53;6.47;;;;;;;33.14;30.50;99697.72;5132739;27;20198;-64
2022/05/17 05:30:12;;;;;;;21.30;6.67;;;;;;;33.33;29.38;99696.41;5134367;27;20190;-65
2022/05/17 05:32:39;;;;;;;9.87;5.53;;;;;;;33.53;30.04;99698.28;5123552;27;20186;-63
2022/05/17 05:35:07;;;;;;;7.97;5.33;;;;;;;33.75;29.34;99697.84;5132919;27;20198;-64
2022/05/17 05:37:33;;;;;;;8.57;4.75;;;;;;;33.78;29.87;99706.25;5133166;27;20185;-65
2022/05/17 05:40:03;;;;;;;10.20;5.17;;;;;;;33.88;28.63;99707.78;5133828;27;20246;-66
2022/05/17 05:42:29;;;;;;;9.90;5.07;;;;;;;34.24;29.38;99710.50;5113369;27;20622;-65
2022/05/17 05:44:56;;;;;;;7.28;5.22;;;;;;;34.11;28.75;99711.66;5128589;27;20230;-67
2022/05/17 05:47:23;;;;;;;11.07;4.82;;;;;;;34.12;29.15;99702.25;5132252;27;20198;-66
2022/05/17 05:49:49;;;;;;;7.95;5.45;;;;;;;34.53;28.77;99702.00;5130824;27;20226;-65
2022/05/17 05:52:16;;;;;;;5.53;5.05;;;;;;;34.35;28.08;99697.88;5134149;27;20624;-65
2022/05/17 05:54:43;;;;;;;8.52;4.72;;;;;;;34.36;28.94;99702.22;5133835;27;20243;-66
2022/05/17 05:57:11;;;;;;;10.68;4.85;;;;;;;34.20;28.67;99693.84;5134437;27;20190;-67
2022/05/17 05:59:38;;;;;;;10.32;4.78;;;;;;;34.21;28.99;99689.16;5146999;27;20258;-67
2022/05/17 06:02:06;;;;;;;9.23;4.97;;;;;;;34.24;28.22;99693.94;5133504;27;20194;-66
2022/05/17 06:04:33;;;;;;;18.00;5.22;;;;;;;34.34;28.31;99699.84;5133581;27;20222;-65
2022/05/17 06:07:00;;;;;;;5.97;5.15;;;;;;;34.19;28.85;99691.44;5124346;27;20259;-67
2022/05/17 06:09:27;;;;;;;9.10;4.40;;;;;;;34.05;29.11;99691.00;5112962;28;20187;-67
2022/05/17 06:11:55;;;;;;;8.23;4.45;;;;;;;33.94;29.73;99689.84;5113525;28;20195;-67
2022/05/17 06:14:23;;;;;;;8.93;5.63;;;;;;;33.82;29.50;99681.56;5112797;28;20275;-67
2022/05/17 06:16:51;;;;;;;10.07;5.22;;;;;;;33.94;29.29;99689.84;5112421;28;20667;-66
2022/05/17 06:19:18;;;;;;;8.70;4.57;;;;;;;33.90;29.47;99686.16;5123756;27;20201;-68
2022/05/17 06:21:45;;;;;;;14.50;4.72;;;;;;;33.98;28.93;99685.25;5153788;27;20201;-68
2022/05/17 06:24:12;;;;;;;20.65;5.88;;;;;;;34.10;29.16;99676.97;5150754;27;20229;-67
2022/05/17 06:26:39;;;;;;;8.18;4.60;;;;;;;34.16;29.22;99678.34;5152149;27;20254;-66
2022/05/17 06:29:06;;;;;;;7.22;5.03;;;;;;;34.21;28.65;99684.41;5153631;27;20185;-67
2022/05/17 06:31:34;;;;;;;14.40;5.38;;;;;;;34.21;28.98;99689.94;5153923;27;20221;-67
2022/05/17 06:34:01;;;;;;;7.07;4.60;;;;;;;34.32;28.96;99687.53;5136998;27;20198;-67
2022/05/17 06:36:28;;;;;;;8.80;5.38;;;;;;;34.14;28.65;99686.16;5150065;27;20749;-68
2022/05/17 06:38:54;;;;;;;11.50;4.47;;;;;;;33.91;29.69;99673.97;5132218;27;20197;-67
2022/05/17 06:41:21;;;;;;;6.40;5.10;;;;;;;33.96;29.22;99676.53;5130795;27;20624;-67
2022/05/17 06:43:48;;;;;;;8.48;4.30;;;;;;;34.01;30.08;99668.00;5132376;27;20182;-66
2022/05/17 06:46:15;;;;;;;13.38;5.18;;;;;;;34.09;29.49;99670.63;5129256;27;20718;-69
2022/05/17 06:48:43;;;;;;;14.25;5.53;;;;;;;34.03;29.51;99668.47;5126492;27;20616;-68
2022/05/17 06:51:10;;;;;;;11.90;4.65;;;;;;;34.07;29.77;99661.91;5131811;27;20197;-68
2022/05/17 06:53:37;;;;;;;11.60;5.43;;;;;;;34.16;30.13;99667.31;5132578;27;20190;-68
2022/05/17 06:56:06;;;;;;;8.00;4.78;;;;;;;34.26;30.11;99661.31;5132629;27;20229;-67
2022/05/17 06:58:32;;;;;;;5.60;4.45;;;;;;;34.20;29.13;99659.94;5135766;27;20254;-68
2022/05/17 07:00:59;;;;;;;21.60;5.55;;;;;;;34.34;28.72;99655.69;5136806;27;20662;-67
2022/05/17 07:03:26;;;;;;;16.10;5.03;;;;;;;34.12;28.60;99664.44;5131107;27;20204;-67
2022/05/17 07:05:54;;;;;;;12.40;4.78;;;;;;;34.21;29.13;99667.06;5147811;27;20336;-67
2022/05/17 07:08:22;;;;;;;7.35;4.65;;;;;;;34.15;28.17;99657.41;5136497;27;20250;-68
2022/05/17 07:13:33;;;;;;;8.27;4.50;;;;;;;33.95;29.01;99650.91;5140182;27;20200;-68
2022/05/17 07:16:01;;;;;;;11.15;4.60;;;;;;;34.07;28.67;99650.06;5136552;27;20272;-68
2022/05/17 07:18:28;;;;;;;8.38;4.00;;;;;;;34.19;28.44;99648.09;5132673;27;20198;-68
2022/05/17 07:20:58;;;;;;;10.75;4.30;;;;;;;34.25;27.94;99648.69;5154137;27;20236;-68
2022/05/17 07:23:26;;;;;;;5.60;4.10;;;;;;;34.39;28.44;99646.38;5153989;27;20281;-68
2022/05/17 07:25:54;;;;;;;11.35;4.68;;;;;;;34.51;27.85;99643.56;5157458;27;20263;-67
2022/05/17 07:28:23;;;;;;;8.10;4.32;;;;;;;34.46;28.18;99649.34;5154472;27;20189;-68
2022/05/17 07:30:51;;;;;;;4.05;3.75;;;;;;;34.39;27.56;99646.38;5116285;28;20191;-68
2022/05/17 07:33:19;;;;;;;3.95;3.70;;;;;;;34.59;27.25;99637.09;5126695;27;20193;-69
2022/05/17 07:35:46;;;;;;;18.42;5.30;;;;;;;34.62;27.04;99636.41;5134064;27;20205;-68
2022/05/17 07:38:14;;;;;;;6.22;4.15;;;;;;;34.73;26.98;99635.53;5141121;27;20185;-68
2022/05/17 07:40:43;;;;;;;5.88;4.30;;;;;;;34.92;26.70;99635.72;5147263;27;20216;-68
2022/05/17 07:43:10;;;;;;;6.72;4.38;;;;;;;34.97;26.24;99645.69;5152893;27;20197;-68
2022/05/17 07:45:37;;;;;;;4.20;3.88;;;;;;;35.00;26.10;99631.19;5145376;27;20224;-68
2022/05/17 07:48:04;;;;;;;4.20;3.90;;;;;;;35.05;26.36;99628.97;5153043;27;20673;-68
2022/05/17 07:50:31;;;;;;;9.07;4.07;;;;;;;35.07;26.45;99629.41;5145357;27;20189;-67
2022/05/17 07:52:58;;;;;;;7.47;3.97;;;;;;;35.26;26.57;99620.41;5156434;27;20190;-68
2022/05/17 07:55:26;;;;;;;4.13;3.83;;;;;;;35.47;26.11;99621.00;5152910;27;20253;-68
2022/05/17 07:57:53;;;;;;;6.13;4.55;;;;;;;35.47;26.03;99621.00;5156638;27;20189;-68
2022/05/17 08:00:22;;;;;;;3.97;3.70;;;;;;;35.55;25.62;99618.06;5151838;27;20185;-71
2022/05/17 08:02:49;;;;;;;5.82;4.18;;;;;;;35.43;25.73;99614.59;5135819;27;20576;-68
2022/05/17 08:05:16;;;;;;;9.10;3.92;;;;;;;35.68;25.63;99614.03;5152223;27;20221;-67
2022/05/17 08:07:43;;;;;;;4.47;3.83;;;;;;;35.73;25.24;99612.97;5157196;27;20193;-67
2022/05/17 08:10:10;;;;;;;4.05;3.83;;;;;;;35.66;25.44;99607.25;5155677;27;20256;-67
2022/05/17 08:12:39;;;;;;;5.13;4.10;;;;;;;35.65;25.56;99611.19;5156187;27;20575;-66
2022/05/17 08:15:06;;;;;;;4.13;3.72;;;;;;;35.60;24.98;99612.25;5146490;27;20612;-66
2022/05/17 08:17:34;;;;;;;6.10;3.92;;;;;;;35.63;24.97;99613.47;5134808;27;20273;-67
2022/05/17 08:20:01;;;;;;;5.65;4.10;;;;;;;35.42;25.32;99612.97;5136880;27;20237;-67
2022/05/17 08:22:28;;;;;;;4.60;4.20;;;;;;;35.45;25.26;99603.97;5135027;27;20682;-66
2022/05/17 08:27:40;;;;;;;14.48;4.65;;;;;;;35.40;25.87;99598.72;5143277;27;20200;-67
2022/05/17 08:30:12;;;;;;;4.82;4.03;;;;;;;35.36;25.86;99592.31;5135346;27;20194;-69
2022/05/17 08:35:35;;;;;;;13.23;4.82;;;;;;;35.50;25.55;99587.13;5131709;27;20852;-68
2022/05/17 08:38:03;;;;;;;19.48;4.82;;;;;;;35.46;25.70;99580.69;5137642;27;20221;-66
2022/05/17 08:40:32;;;;;;;6.40;4.60;;;;;;;35.00;26.07;99585.03;5139078;27;20196;-71
2022/05/17 08:43:11;;;;;;;5.20;4.30;;;;;;;35.04;25.58;99576.84;5155883;27;20197;-71
2022/05/17 08:45:51;;;;;;;8.13;4.18;;;;;;;34.62;26.37;99573.72;5152127;27;20292;-72
2022/05/17 08:48:20;;;;;;;11.50;4.97;;;;;;;34.98;26.01;99575.50;5152182;27;20244;-71
2022/05/17 08:50:49;;;;;;;5.85;4.53;;;;;;;35.01;25.83;99575.59;5114295;28;20259;-72
2022/05/17 08:53:19;;;;;;;4.28;3.90;;;;;;;35.14;25.80;99568.00;5129755;27;20689;-71
2022/05/17 08:55:50;;;;;;;4.95;4.47;;;;;;;35.23;25.86;99572.22;5147209;27;20205;-71
2022/05/17 08:58:22;;;;;;;6.28;4.18;;;;;;;35.22;25.40;99572.56;5131328;27;20194;-71
2022/05/17 09:00:52;;;;;;;6.18;3.75;;;;;;;34.47;26.25;99568.97;5131000;27;20246;-71
2022/05/17 09:03:35;;;;;;;4.30;4.05;;;;;;;34.77;25.32;99563.84;5132221;27;20194;-71
2022/05/17 09:06:09;;;;;;;6.55;4.00;;;;;;;35.05;25.59;99575.69;5134722;27;20223;-72
2022/05/17 09:08:42;;;;;;;5.10;3.75;;;;;;;35.00;26.01;99573.19;5153913;27;20650;-71
2022/05/17 09:11:17;;;;;;;16.10;4.82;;;;;;;35.08;25.44;99569.44;5151909;27;20327;-72
2022/05/17 09:13:51;;;;;;;5.00;3.97;;;;;;;35.30;25.07;99563.31;5140202;27;20205;-71
2022/05/17 09:16:18;;;;;;;4.28;3.88;;;;;;;35.50;24.44;99553.94;5132585;27;20189;-72
2022/05/17 09:18:46;;;;;;;104.47;14.88;;;;;;;35.72;24.42;99551.31;5134577;27;20592;-71
2022/05/17 09:21:28;;;;;;;43.80;8.13;;;;;;;35.79;24.35;99554.28;5130028;27;20617;-70
2022/05/17 09:23:57;;;;;;;8.07;4.13;;;;;;;35.37;24.77;99549.69;5135269;27;20182;-70
2022/05/17 09:26:24;;;;;;;6.50;4.03;;;;;;;35.48;25.08;99559.03;5134130;27;20650;-71
2022/05/17 09:28:56;;;;;;;4.47;4.18;;;;;;;35.72;24.13;99543.03;5132091;27;20190;-70
2022/05/17 09:31:29;;;;;;;5.78;4.20;;;;;;;35.25;24.39;99541.47;5154788;27;20258;-70
2022/05/17 09:34:00;;;;;;;6.82;4.22;;;;;;;35.09;24.93;99541.47;5144461;27;20257;-77
2022/05/17 09:36:41;;;;;;;7.50;4.03;;;;;;;34.20;25.70;99539.38;5149909;27;20628;-75
2022/05/17 09:39:08;;;;;;;4.53;3.88;;;;;;;34.38;27.89;99532.44;5154613;27;20645;-76
2022/05/17 09:41:39;;;;;;;5.10;4.55;;;;;;;34.08;27.82;99524.84;5139926;27;20198;-77
2022/05/17 09:44:11;;;;;;;6.03;4.40;;;;;;;33.71;26.97;99526.84;5134268;27;20202;-73
2022/05/17 09:46:44;;;;;;;5.05;4.57;;;;;;;33.59;27.29;99518.59;5133521;27;20206;-75
2022/05/17 09:55:07;;;;;;;6.97;4.38;;;;;;;33.67;27.82;99503.09;5131625;27;20327;-76
2022/05/17 09:57:36;;;;;;;5.03;4.35;;;;;;;33.80;27.26;99499.16;5131085;27;20662;-76
2022/05/17 10:00:12;;;;;;;6.28;4.20;;;;;;;33.60;29.12;99502.88;5134204;27;20213;-74
2022/05/17 10:02:43;;;;;;;9.45;4.35;;;;;;;33.58;28.65;99505.97;5154121;27;20200;-74
2022/05/17 10:05:18;;;;;;;8.35;4.43;;;;;;;33.44;27.88;99499.22;5154499;27;20181;-75
2022/05/17 10:07:51;;;;;;;31.02;6.47;;;;;;;33.39;27.67;99493.97;5154058;27;20249;-75
2022/05/17 10:10:30;;;;;;;4.28;3.83;;;;;;;33.35;26.36;99490.28;5136551;27;20241;-75
2022/05/17 10:13:06;;;;;;;3.55;3.28;;;;;;;33.35;24.88;99490.28;5154156;27;20186;-73
2022/05/17 10:15:38;;;;;;;7.18;3.42;;;;;;;33.39;25.25;99496.72;5153794;27;20188;-73
2022/05/17 10:18:16;;;;;;;3.25;3.05;;;;;;;33.38;27.14;99479.38;5154175;27;20260;-73
2022/05/17 10:20:49;;;;;;;5.18;3.30;;;;;;;33.30;26.49;99485.78;5154625;27;20229;-74
2022/05/17 10:23:25;;;;;;;5.57;3.35;;;;;;;33.16;23.63;99485.31;5146810;27;20633;-73
2022/05/17 10:25:56;;;;;;;2.90;2.70;;;;;;;33.14;26.14;99471.91;5141324;27;20209;-74
2022/05/17 10:28:33;;;;;;;3.30;2.60;;;;;;;33.12;25.06;99471.44;5149422;27;20249;-74
2022/05/17 10:31:11;;;;;;;3.55;2.50;;;;;;;33.07;24.99;99468.91;5149627;27;20236;-75
2022/05/17 10:33:56;;;;;;;3.72;3.03;;;;;;;33.03;24.80;99461.69;5137586;27;20224;-73
2022/05/17 10:36:27;;;;;;;4.43;2.90;;;;;;;32.83;25.15;99463.41;5153890;27;20245;-73
2022/05/17 10:39:03;;;;;;;3.30;2.83;;;;;;;32.73;24.72;99457.50;5154039;27;20649;-74
2022/05/17 10:41:29;;;;;;;5.73;2.63;;;;;;;32.75;23.23;99453.25;5139096;27;20217;-73
2022/05/17 10:43:56;;;;;;;2.77;2.30;;;;;;;31.85;24.71;99434.34;5143442;27;20257;-75
2022/05/17 10:46:30;;;;;;;7.00;2.40;;;;;;;32.16;23.87;99440.16;5150070;27;20235;-73
2022/05/17 10:49:11;;;;;;;4.00;2.53;;;;;;;32.29;24.60;99428.91;5118521;27;20233;-74
2022/05/17 10:51:47;;;;;;;2.90;2.63;;;;;;;32.63;24.45;99435.97;5109932;27;20174;-75
2022/05/17 10:54:24;;;;;;;3.17;2.37;;;;;;;32.44;22.96;99444.75;5112234;28;20183;-73
2022/05/17 10:56:59;;;;;;;2.37;2.27;;;;;;;32.51;21.48;99438.69;5112138;28;20187;-72
2022/05/17 10:59:37;;;;;;;2.70;2.30;;;;;;;32.80;21.50;99435.75;5112181;28;20619;-72
2022/05/17 11:02:17;;;;;;;4.50;1.90;;;;;;;32.95;20.67;99438.63;5112167;28;20648;-72
2022/05/17 11:05:03;;;;;;;2.67;2.20;;;;;;;32.94;22.22;99425.19;5132666;28;20247;-73
2022/05/17 11:07:49;;;;;;;6.20;2.40;;;;;;;33.15;23.36;99421.19;5132986;27;20201;-77
2022/05/17 11:10:26;;;;;;;16.13;2.67;;;;;;;33.01;20.53;99409.75;5133190;27;20185;-73
2022/05/17 11:13:00;;;;;;;12.75;2.67;;;;;;;33.06;22.91;99417.75;5133391;27;20189;-71
2022/05/17 11:15:35;;;;;;;3.72;2.58;;;;;;;33.01;22.10;99412.50;5132928;27;20718;-71
2022/05/17 11:18:14;;;;;;;4.18;2.33;;;;;;;32.96;21.71;99409.94;5132869;27;20566;-71
2022/05/17 11:20:48;;;;;;;3.67;2.27;;;;;;;32.70;21.69;99409.47;5132991;27;20238;-71
2022/05/17 11:23:36;;;;;;;10.73;2.80;;;;;;;32.71;20.87;99402.81;5131880;27;20667;-71
2022/05/17 11:26:53;;;;;;;8.00;4.75;;;;;;;33.02;17.69;99392.06;5130616;27;20306;-69
2022/05/17 11:29:50;;;;;;;3.38;1.80;;;;;;;33.11;18.77;99391.91;5128483;27;20251;-69
2022/05/17 11:32:24;;;;;;;2.10;1.90;;;;;;;32.39;20.77;99387.22;5132169;27;20190;-71
2022/05/17 11:34:54;;;;;;;2.88;2.28;;;;;;;32.61;20.80;99378.53;5111850;28;20182;-71
2022/05/17 11:37:47;;;;;;;48.37;4.80;;;;;;;32.74;20.54;99377.38;5111780;28;20289;-70
2022/05/17 11:40:56;;;;;;;6.53;2.37;;;;;;;32.89;19.53;99368.47;5114523;28;20671;-71
2022/05/17 11:43:42;;;;;;;3.03;2.78;;;;;;;32.92;19.70;99362.22;5112064;28;20198;-70
2022/05/17 11:46:44;;;;;;;2.05;1.95;;;;;;;32.39;20.52;99369.91;5115325;28;20202;-69
2022/05/17 11:49:47;;;;;;;3.23;1.87;;;;;;;32.82;21.41;99367.41;5113503;28;20222;-70
2022/05/17 11:52:36;;;;;;;3.10;2.28;;;;;;;32.94;21.24;99354.44;5115537;28;20628;-70
2022/05/17 11:55:06;;;;;;;2.10;1.98;;;;;;;32.94;21.49;99353.63;5115505;28;20278;-70
2022/05/17 11:58:07;;;;;;;4.65;2.17;;;;;;;32.95;21.47;99350.53;5115206;28;20243;-70
2022/05/17 12:00:45;;;;;;;11.20;2.20;;;;;;;32.86;20.48;99347.13;5115693;28;20186;-71